createdAt,value
2023-04-10T00:01:54.642Z,8.40
2023-04-10T00:04:23.888Z,8.40
2023-04-10T00:06:51.810Z,8.40
2023-04-10T00:09:19.734Z,8.40
2023-04-10T00:11:47.739Z,8.30
2023-04-10T00:14:15.654Z,8.20
2023-04-10T00:16:43.603Z,8.10
2023-04-10T00:19:11.545Z,8.00
2023-04-10T00:21:41.181Z,8.00
2023-04-10T00:24:09.357Z,8.00
2023-04-10T00:26:37.531Z,8.00
2023-04-10T00:29:05.381Z,8.00
2023-04-10T00:31:33.473Z,8.00
2023-04-10T00:34:01.368Z,8.00
2023-04-10T00:36:29.246Z,7.90
2023-04-10T00:38:59.452Z,7.90
2023-04-10T00:41:27.454Z,7.90
2023-04-10T00:43:57.604Z,7.80
2023-04-10T00:46:25.981Z,7.80
2023-04-10T00:48:54.375Z,7.80
2023-04-10T00:51:23.135Z,7.80
2023-04-10T00:53:52.418Z,7.80
2023-04-10T00:56:22.712Z,7.80
2023-04-10T00:58:50.726Z,7.80
2023-04-10T01:01:19.028Z,7.80
2023-04-10T01:03:47.207Z,7.80
2023-04-10T01:06:26.602Z,7.70
2023-04-10T01:09:01.798Z,7.70
2023-04-10T01:11:41.671Z,7.70
2023-04-10T01:14:17.678Z,7.60
2023-04-10T01:16:50.116Z,7.60
2023-04-10T01:19:32.051Z,7.50
2023-04-10T01:22:03.476Z,7.50
2023-04-10T01:24:46.678Z,7.50
2023-04-10T01:27:32.719Z,7.50
2023-04-10T01:30:03.827Z,7.50
2023-04-10T01:32:35.050Z,7.50
2023-04-10T01:35:08.505Z,7.50
2023-04-10T01:37:41.719Z,7.50
2023-04-10T01:40:13.983Z,7.40
2023-04-10T01:42:48.626Z,7.40
2023-04-10T01:45:21.720Z,7.30
2023-04-10T01:47:49.775Z,7.30
2023-04-10T01:50:18.711Z,7.30
2023-04-10T01:52:47.480Z,7.30
2023-04-10T01:55:16.304Z,7.30
2023-04-10T01:57:44.454Z,7.20
2023-04-10T02:00:13.551Z,7.20
2023-04-10T02:02:43.846Z,7.20
2023-04-10T02:05:12.340Z,7.20
2023-04-10T02:07:47.483Z,7.10
2023-04-10T02:10:22.007Z,7.10
2023-04-10T02:12:54.047Z,7.00
2023-04-10T02:15:24.529Z,7.00
2023-04-10T02:17:55.212Z,7.00
2023-04-10T02:20:24.628Z,6.90
2023-04-10T02:22:53.426Z,6.90
2023-04-10T02:25:21.595Z,6.90
2023-04-10T02:27:49.508Z,6.80
2023-04-10T02:30:17.538Z,6.70
2023-04-10T02:32:45.432Z,6.80
2023-04-10T02:35:14.687Z,6.70
2023-04-10T02:37:43.274Z,6.80
2023-04-10T02:40:11.919Z,6.80
2023-04-10T02:42:39.829Z,6.70
2023-04-10T02:45:09.200Z,6.70
2023-04-10T02:47:37.291Z,6.70
2023-04-10T02:50:05.981Z,6.70
2023-04-10T02:52:35.290Z,6.70
2023-04-10T02:55:03.225Z,6.60
2023-04-10T02:57:31.078Z,6.60
2023-04-10T02:59:58.941Z,6.60
2023-04-10T03:02:27.970Z,6.50
2023-04-10T03:04:56.036Z,6.50
2023-04-10T03:07:23.954Z,6.50
2023-04-10T03:09:53.170Z,6.50
2023-04-10T03:12:21.397Z,6.50
2023-04-10T03:14:49.329Z,6.50
2023-04-10T03:17:17.255Z,6.50
2023-04-10T03:19:45.115Z,6.50
2023-04-10T03:22:12.976Z,6.40
2023-04-10T03:24:41.089Z,6.30
2023-04-10T03:27:10.289Z,6.20
2023-04-10T03:29:38.141Z,6.30
2023-04-10T03:32:06.429Z,6.20
2023-04-10T03:34:34.320Z,6.30
2023-04-10T03:37:03.086Z,6.20
2023-04-10T03:39:31.003Z,6.20
2023-04-10T03:41:58.843Z,6.20
2023-04-10T03:44:28.073Z,6.20
2023-04-10T03:46:56.024Z,6.20
2023-04-10T03:49:23.911Z,6.20
2023-04-10T03:51:52.950Z,6.20
2023-04-10T03:54:20.877Z,6.20
2023-04-10T03:56:48.724Z,6.30
2023-04-10T03:59:16.521Z,6.20
2023-04-10T04:01:45.892Z,6.20
2023-04-10T04:04:13.951Z,6.20
2023-04-10T04:06:42.071Z,6.20
2023-04-10T04:09:09.965Z,6.20
2023-04-10T04:11:38.512Z,6.20
2023-04-10T04:14:06.345Z,6.10
2023-04-10T04:16:34.366Z,6.10
2023-04-10T04:19:03.599Z,6.10
2023-04-10T04:21:31.578Z,6.10
2023-04-10T04:23:59.393Z,6.10
2023-04-10T04:26:27.236Z,6.10
2023-04-10T04:28:55.434Z,6.00
2023-04-10T04:31:24.324Z,5.90
2023-04-10T04:33:52.697Z,5.90
2023-04-10T04:36:22.108Z,5.90
2023-04-10T04:38:50.014Z,5.90
2023-04-10T04:41:19.437Z,5.80
2023-04-10T04:43:49.440Z,5.90
2023-04-10T04:46:17.394Z,5.80
2023-04-10T04:48:45.289Z,5.80
2023-04-10T04:51:13.116Z,5.80
2023-04-10T04:53:42.383Z,5.80
2023-04-10T04:56:10.708Z,5.80
2023-04-10T04:58:38.674Z,5.80
2023-04-10T05:01:07.178Z,5.90
2023-04-10T05:03:35.457Z,5.80
2023-04-10T05:06:03.465Z,5.80
2023-04-10T05:08:31.446Z,5.80
2023-04-10T05:11:00.741Z,5.80
2023-04-10T05:13:28.651Z,5.80
2023-04-10T05:15:56.578Z,5.80
2023-04-10T05:18:24.544Z,5.80
2023-04-10T05:20:52.595Z,5.80
2023-04-10T05:23:20.751Z,5.80
2023-04-10T05:25:48.633Z,5.90
2023-04-10T05:28:17.885Z,5.90
2023-04-10T05:30:45.877Z,5.90
2023-04-10T05:33:13.776Z,5.90
2023-04-10T05:35:41.698Z,5.90
2023-04-10T05:38:09.613Z,5.90
2023-04-10T05:40:37.507Z,5.90
2023-04-10T05:43:05.392Z,6.00
2023-04-10T05:45:34.576Z,6.00
2023-04-10T05:48:02.492Z,6.10
2023-04-10T05:50:30.657Z,6.10
2023-04-10T05:52:58.695Z,6.20
2023-04-10T05:55:26.561Z,6.30
2023-04-10T05:57:54.483Z,6.30
2023-04-10T06:00:22.465Z,6.30
2023-04-10T06:02:51.794Z,6.40
2023-04-10T06:05:19.983Z,6.40
2023-04-10T06:07:48.053Z,6.50
2023-04-10T06:10:16.001Z,6.60
2023-04-10T06:12:43.941Z,6.70
2023-04-10T06:15:12.532Z,6.90
2023-04-10T06:17:44.213Z,7.10
2023-04-10T06:20:14.154Z,7.30
2023-04-10T06:22:42.053Z,7.50
2023-04-10T06:25:10.848Z,7.60
2023-04-10T06:27:38.885Z,7.70
2023-04-10T06:30:08.358Z,7.80
2023-04-10T06:32:36.371Z,7.80
2023-04-10T06:35:04.418Z,7.90
2023-04-10T06:37:33.712Z,7.90
2023-04-10T06:40:04.850Z,8.00
2023-04-10T06:42:32.782Z,8.00
2023-04-10T06:45:00.731Z,8.10
2023-04-10T06:47:28.917Z,8.20
2023-04-10T06:49:56.916Z,8.20
2023-04-10T06:52:24.789Z,8.30
2023-04-10T06:54:54.107Z,8.40
2023-04-10T06:57:22.003Z,8.40
2023-04-10T06:59:49.959Z,8.50
2023-04-10T07:02:17.896Z,8.60
2023-04-10T07:04:45.853Z,8.70
2023-04-10T07:07:15.823Z,8.80
2023-04-10T07:09:43.779Z,8.90
2023-04-10T07:12:13.044Z,9.00
2023-04-10T07:14:41.359Z,9.20
2023-04-10T07:17:09.458Z,9.30
2023-04-10T07:19:38.105Z,9.50
2023-04-10T07:22:06.058Z,9.70
2023-04-10T07:24:33.946Z,10.00
2023-04-10T07:27:01.973Z,10.20
2023-04-10T07:29:31.629Z,10.50
2023-04-10T07:31:59.671Z,10.90
2023-04-10T07:34:27.636Z,11.30
2023-04-10T07:36:55.520Z,11.90
2023-04-10T07:39:23.373Z,12.40
2023-04-10T07:41:51.272Z,12.80
2023-04-10T07:44:19.912Z,13.20
2023-04-10T07:46:49.191Z,13.70
2023-04-10T07:49:17.139Z,14.00
2023-04-10T07:51:45.068Z,14.10
2023-04-10T07:54:12.922Z,14.10
2023-04-10T07:56:40.941Z,14.20
2023-04-10T07:59:09.120Z,14.10
2023-04-10T08:01:37.029Z,14.20
2023-04-10T08:04:06.676Z,14.20
2023-04-10T08:06:34.695Z,14.30
2023-04-10T08:09:02.647Z,14.40
2023-04-10T08:11:31.846Z,14.50
2023-04-10T08:14:02.573Z,14.70
2023-04-10T08:16:33.286Z,14.90
2023-04-10T08:19:02.651Z,15.00
2023-04-10T08:21:32.633Z,15.20
2023-04-10T08:24:02.731Z,15.40
2023-04-10T08:26:30.872Z,15.50
2023-04-10T08:29:00.737Z,15.70
2023-04-10T08:31:29.956Z,15.90
2023-04-10T08:33:59.141Z,15.90
2023-04-10T08:36:27.682Z,15.90
2023-04-10T08:38:56.950Z,15.90
2023-04-10T08:41:24.977Z,16.10
2023-04-10T08:43:53.283Z,16.20
2023-04-10T08:46:24.752Z,16.40
2023-04-10T08:48:56.178Z,16.40
2023-04-10T08:51:29.973Z,16.60
2023-04-10T08:54:05.017Z,16.60
2023-04-10T08:56:34.479Z,16.70
2023-04-10T08:59:03.553Z,16.70
2023-04-10T09:01:31.798Z,16.70
2023-04-10T09:04:00.205Z,16.80
2023-04-10T09:06:28.608Z,16.90
2023-04-10T09:08:56.473Z,16.90
2023-04-10T09:11:25.798Z,16.90
2023-04-10T09:13:53.812Z,17.00
2023-04-10T09:16:30.225Z,17.00
2023-04-10T09:18:59.810Z,17.20
2023-04-10T09:21:28.034Z,17.30
2023-04-10T09:24:02.227Z,17.40
2023-04-10T09:26:33.358Z,17.60
2023-04-10T09:29:02.923Z,17.70
2023-04-10T09:31:33.057Z,17.70
2023-04-10T09:34:12.949Z,17.70
2023-04-10T09:36:42.303Z,17.80
2023-04-10T09:39:11.937Z,17.90
2023-04-10T09:41:52.053Z,18.00
2023-04-10T09:44:30.097Z,18.20
2023-04-10T09:46:58.225Z,18.30
2023-04-10T09:49:26.261Z,18.40
2023-04-10T09:51:54.085Z,18.50
2023-04-10T09:54:37.081Z,18.50
2023-04-10T09:57:08.234Z,18.60
2023-04-10T09:59:41.142Z,18.80
2023-04-10T10:02:10.514Z,19.00
2023-04-10T10:04:40.565Z,19.00
2023-04-10T10:07:08.890Z,19.00
2023-04-10T10:09:37.948Z,19.00
2023-04-10T10:12:09.113Z,19.00
2023-04-10T10:14:42.820Z,19.20
2023-04-10T10:17:13.423Z,19.20
2023-04-10T10:19:47.249Z,19.20
2023-04-10T10:22:15.518Z,19.30
2023-04-10T10:24:48.232Z,19.50
2023-04-10T10:27:19.070Z,19.80
2023-04-10T10:29:49.830Z,19.80
2023-04-10T10:32:19.227Z,19.90
2023-04-10T10:34:47.302Z,19.90
2023-04-10T10:37:16.110Z,19.90
2023-04-10T10:39:50.661Z,19.90
2023-04-10T10:42:27.741Z,19.90
2023-04-10T10:45:04.971Z,20.00
2023-04-10T10:47:35.087Z,19.90
2023-04-10T10:50:04.435Z,20.00
2023-04-10T10:52:40.243Z,20.10
2023-04-10T10:55:35.001Z,20.30
2023-04-10T10:58:06.187Z,20.50
2023-04-10T11:01:10.267Z,20.50
2023-04-10T11:03:39.143Z,20.40
2023-04-10T11:06:08.692Z,20.50
2023-04-10T11:08:55.372Z,20.60
2023-04-10T11:11:25.011Z,20.50
2023-04-10T11:14:17.940Z,20.60
2023-04-10T11:16:48.203Z,20.70
2023-04-10T11:19:19.184Z,20.70
2023-04-10T11:22:08.943Z,20.70
2023-04-10T11:24:59.637Z,20.60
2023-04-10T11:27:48.596Z,20.30
2023-04-10T11:30:35.361Z,20.00
2023-04-10T11:33:04.797Z,20.10
2023-04-10T11:35:33.763Z,20.20
2023-04-10T11:38:16.364Z,20.30
2023-04-10T11:41:05.363Z,20.50
2023-04-10T11:43:35.110Z,20.80
2023-04-10T11:46:07.572Z,20.90
2023-04-10T11:48:36.965Z,21.00
2023-04-10T11:51:14.208Z,21.20
2023-04-10T11:53:42.694Z,21.40
2023-04-10T11:56:18.460Z,21.40
2023-04-10T11:58:46.374Z,21.50
2023-04-10T12:01:15.632Z,21.70
2023-04-10T12:03:45.039Z,21.70
2023-04-10T12:06:16.249Z,21.80
2023-04-10T12:08:47.503Z,21.90
2023-04-10T12:11:16.012Z,22.10
2023-04-10T12:13:43.925Z,22.20
2023-04-10T12:16:12.914Z,22.30
2023-04-10T12:18:42.877Z,22.50
2023-04-10T12:21:11.106Z,22.60
2023-04-10T12:23:40.396Z,22.60
2023-04-10T12:26:11.145Z,22.60
2023-04-10T12:28:40.305Z,22.70
2023-04-10T12:31:09.247Z,22.60
2023-04-10T12:33:37.307Z,22.50
2023-04-10T12:36:07.162Z,22.50
2023-04-10T12:38:42.959Z,22.60
2023-04-10T12:41:12.253Z,22.60
2023-04-10T12:43:41.867Z,22.60
2023-04-10T12:46:11.221Z,22.70
2023-04-10T12:48:39.335Z,22.70
2023-04-10T12:51:08.992Z,22.70
2023-04-10T12:53:45.202Z,22.90
2023-04-10T12:56:14.737Z,22.90
2023-04-10T12:58:43.027Z,22.90
2023-04-10T13:01:11.159Z,22.90
2023-04-10T13:03:39.509Z,22.80
2023-04-10T13:06:09.538Z,22.60
2023-04-10T13:08:37.392Z,22.50
2023-04-10T13:11:07.046Z,22.40
2023-04-10T13:13:35.067Z,22.30
2023-04-10T13:16:03.041Z,22.10
2023-04-10T13:18:30.896Z,22.10
2023-04-10T13:20:58.747Z,22.10
2023-04-10T13:23:28.060Z,22.00
2023-04-10T13:25:56.751Z,21.90
2023-04-10T13:28:24.640Z,21.80
2023-04-10T13:30:52.967Z,21.70
2023-04-10T13:33:20.818Z,21.70
2023-04-10T13:35:48.712Z,21.50
2023-04-10T13:38:16.702Z,21.30
2023-04-10T13:40:47.066Z,21.30
2023-04-10T13:43:15.199Z,21.20
2023-04-10T13:45:43.088Z,21.30
2023-04-10T13:48:11.056Z,21.30
2023-04-10T13:50:39.068Z,21.20
2023-04-10T13:53:09.015Z,21.20
2023-04-10T13:55:37.971Z,21.10
2023-04-10T13:58:07.900Z,21.10
2023-04-10T14:00:35.750Z,21.10
2023-04-10T14:03:03.820Z,21.00
2023-04-10T14:05:31.841Z,21.00
2023-04-10T14:07:59.680Z,20.80
2023-04-10T14:10:27.615Z,20.70
2023-04-10T14:12:55.848Z,20.60
2023-04-10T14:15:25.086Z,20.50
2023-04-10T14:17:52.984Z,20.40
2023-04-10T14:20:21.045Z,20.30
2023-04-10T14:22:48.989Z,20.30
2023-04-10T14:25:17.058Z,20.20
2023-04-10T14:27:45.525Z,20.20
2023-04-10T14:30:13.855Z,20.20
2023-04-10T14:32:43.921Z,20.10
2023-04-10T14:35:12.218Z,20.20
2023-04-10T14:37:40.249Z,20.10
2023-04-10T14:40:09.972Z,20.10
2023-04-10T14:42:37.854Z,20.00
2023-04-10T14:45:06.567Z,20.00
2023-04-10T14:47:35.931Z,19.90
2023-04-10T14:50:05.874Z,19.90
2023-04-10T14:52:33.740Z,19.80
2023-04-10T14:55:01.725Z,19.80
2023-04-10T14:57:30.418Z,19.70
2023-04-10T15:00:00.352Z,19.70
2023-04-10T15:02:29.889Z,19.70
2023-04-10T15:04:57.906Z,19.70
2023-04-10T15:07:28.243Z,19.70
2023-04-10T15:09:57.710Z,19.70
2023-04-10T15:12:25.969Z,19.70
2023-04-10T15:14:53.866Z,19.70
2023-04-10T15:17:24.031Z,19.70
2023-04-10T15:19:52.199Z,19.70
2023-04-10T15:22:20.127Z,19.70
2023-04-10T15:24:50.945Z,19.60
2023-04-10T15:27:20.927Z,19.50
2023-04-10T15:29:48.921Z,19.50
2023-04-10T15:32:16.849Z,19.50
2023-04-10T15:34:45.658Z,19.50
2023-04-10T15:37:13.619Z,19.50
2023-04-10T15:39:41.562Z,19.50
2023-04-10T15:42:10.828Z,19.50
2023-04-10T15:44:38.700Z,19.50
2023-04-10T15:47:06.650Z,19.50
2023-04-10T15:49:38.282Z,19.40
2023-04-10T15:52:07.027Z,19.40
2023-04-10T15:54:35.429Z,19.40
2023-04-10T15:57:03.663Z,19.30
2023-04-10T15:59:33.994Z,19.20
2023-04-10T16:02:02.004Z,19.10
2023-04-10T16:04:30.153Z,19.10
2023-04-10T16:06:58.087Z,19.00
2023-04-10T16:09:26.825Z,18.90
2023-04-10T16:11:56.016Z,18.90
2023-04-10T16:14:24.134Z,18.90
2023-04-10T16:16:53.397Z,18.90
2023-04-10T16:19:21.295Z,18.80
2023-04-10T16:21:50.125Z,18.70
2023-04-10T16:24:18.299Z,18.70
2023-04-10T16:26:46.145Z,18.70
2023-04-10T16:29:16.026Z,18.70
2023-04-10T16:31:44.353Z,18.70
2023-04-10T16:34:13.800Z,18.70
2023-04-10T16:36:41.973Z,18.70
2023-04-10T16:39:10.246Z,18.70
2023-04-10T16:41:38.503Z,18.70
2023-04-10T16:44:07.088Z,18.70
2023-04-10T16:46:35.245Z,18.60
2023-04-10T16:49:03.654Z,18.60
2023-04-10T16:51:33.366Z,18.60
2023-04-10T16:54:01.498Z,18.50
2023-04-10T16:56:29.850Z,18.50
2023-04-10T16:58:58.164Z,18.50
2023-04-10T17:01:26.595Z,18.50
2023-04-10T17:03:55.371Z,18.40
2023-04-10T17:06:23.638Z,18.40
2023-04-10T17:08:53.697Z,18.40
2023-04-10T17:11:21.972Z,18.40
2023-04-10T17:13:49.909Z,18.30
2023-04-10T17:16:17.802Z,18.20
2023-04-10T17:18:45.710Z,18.20
2023-04-10T17:21:14.310Z,18.20
2023-04-10T17:23:42.430Z,18.10
2023-04-10T17:26:16.028Z,18.00
2023-04-10T17:28:46.231Z,18.00
2023-04-10T17:31:14.450Z,18.00
2023-04-10T17:33:42.835Z,17.90
2023-04-10T17:36:12.264Z,17.90
2023-04-10T17:38:41.118Z,17.80
2023-04-10T17:41:09.846Z,17.70
2023-04-10T17:43:40.193Z,17.70
2023-04-10T17:46:08.304Z,17.60
2023-04-10T17:48:36.260Z,17.50
2023-04-10T17:51:06.652Z,17.50
2023-04-10T17:53:34.541Z,17.40
2023-04-10T17:56:02.463Z,17.40
2023-04-10T17:58:30.713Z,17.30
2023-04-10T18:01:00.182Z,17.20
2023-04-10T18:03:28.134Z,17.20
2023-04-10T18:05:56.089Z,17.20
2023-04-10T18:08:24.090Z,17.10
2023-04-10T18:10:51.979Z,17.10
2023-04-10T18:13:19.970Z,17.00
2023-04-10T18:15:47.876Z,16.90
2023-04-10T18:18:17.096Z,16.90
2023-04-10T18:20:44.971Z,16.80
2023-04-10T18:23:12.891Z,16.80
2023-04-10T18:25:40.836Z,16.80
2023-04-10T18:28:15.274Z,16.80
2023-04-10T18:30:44.417Z,16.70
2023-04-10T18:33:12.716Z,16.70
2023-04-10T18:35:42.168Z,16.60
2023-04-10T18:38:10.195Z,16.60
2023-04-10T18:40:38.082Z,16.60
2023-04-10T18:43:06.020Z,16.60
2023-04-10T18:45:34.879Z,16.60
2023-04-10T18:48:02.891Z,16.60
2023-04-10T18:50:31.406Z,16.60
2023-04-10T18:53:00.695Z,16.60
2023-04-10T18:55:28.612Z,16.60
2023-04-10T18:57:56.509Z,16.50
2023-04-10T19:00:24.467Z,16.50
2023-04-10T19:02:52.510Z,16.50
2023-04-10T19:05:20.539Z,16.50
2023-04-10T19:08:00.688Z,16.50
2023-04-10T19:10:32.987Z,16.50
2023-04-10T19:13:00.923Z,16.50
2023-04-10T19:15:28.966Z,16.50
2023-04-10T19:17:56.989Z,16.50
2023-04-10T19:20:49.061Z,16.50
2023-04-10T19:23:13.101Z,16.50
2023-04-10T19:25:43.704Z,16.50
2023-04-10T19:28:11.642Z,16.50
2023-04-10T19:30:39.617Z,16.50
2023-04-10T19:33:07.522Z,16.50
2023-04-10T19:35:35.498Z,16.50
2023-04-10T19:38:03.448Z,16.40
2023-04-10T19:40:31.839Z,16.40
2023-04-10T19:43:02.028Z,16.40
2023-04-10T19:45:32.276Z,16.50
2023-04-10T19:48:00.512Z,16.40
2023-04-10T19:50:30.491Z,16.40
2023-04-10T19:52:59.425Z,16.40
2023-04-10T19:55:27.869Z,16.40
2023-04-10T19:57:55.975Z,16.50
2023-04-10T20:00:25.328Z,16.50
2023-04-10T20:02:53.331Z,16.50
2023-04-10T20:05:21.385Z,16.50
2023-04-10T20:07:49.452Z,16.50
2023-04-10T20:10:17.292Z,16.50
2023-04-10T20:12:45.237Z,16.40
2023-04-10T20:15:13.492Z,16.50
2023-04-10T20:17:42.856Z,16.50
2023-04-10T20:20:12.589Z,16.50
2023-04-10T20:22:40.485Z,16.50
2023-04-10T20:25:09.281Z,16.40
2023-04-10T20:27:37.099Z,16.40
2023-04-10T20:30:05.924Z,16.40
2023-04-10T20:32:33.862Z,16.30
2023-04-10T20:35:03.146Z,16.30
2023-04-10T20:37:31.001Z,16.20
2023-04-10T20:39:58.898Z,16.20
2023-04-10T20:42:26.740Z,16.20
2023-04-10T20:44:55.413Z,16.20
2023-04-10T20:47:23.298Z,16.20
2023-04-10T20:49:51.206Z,16.10
2023-04-10T20:52:20.470Z,16.00
2023-04-10T20:54:48.381Z,16.00
2023-04-10T20:57:16.275Z,16.00
2023-04-10T20:59:44.249Z,16.00
2023-04-10T21:02:13.191Z,16.00
2023-04-10T21:04:41.156Z,15.90
2023-04-10T21:07:09.053Z,15.90
2023-04-10T21:09:38.315Z,15.90
2023-04-10T21:12:06.337Z,15.80
2023-04-10T21:14:35.773Z,15.80
2023-04-10T21:17:04.049Z,15.70
2023-04-10T21:19:31.962Z,15.70
2023-04-10T21:21:59.866Z,15.70
2023-04-10T21:24:29.325Z,15.70
2023-04-10T21:26:58.618Z,15.60
2023-04-10T21:29:26.539Z,15.60
2023-04-10T21:31:54.473Z,15.60
2023-04-10T21:34:22.464Z,15.60
2023-04-10T21:36:50.364Z,15.60
2023-04-10T21:39:18.245Z,15.60
2023-04-10T21:41:46.145Z,15.50
2023-04-10T21:44:15.442Z,15.50
2023-04-10T21:46:43.459Z,15.50
2023-04-10T21:49:11.459Z,15.50
2023-04-10T21:51:40.474Z,15.50
2023-04-10T21:54:08.456Z,15.40
2023-04-10T21:56:38.659Z,15.40
2023-04-10T21:59:06.706Z,15.40
2023-04-10T22:01:36.154Z,15.40
2023-04-10T22:04:04.431Z,15.50
2023-04-10T22:06:32.787Z,15.50
2023-04-10T22:09:00.657Z,15.60
2023-04-10T22:11:28.551Z,15.60
2023-04-10T22:14:00.147Z,15.60
2023-04-10T22:16:30.787Z,15.60
2023-04-10T22:19:00.418Z,15.70
2023-04-10T22:21:28.363Z,15.70
2023-04-10T22:23:56.271Z,15.70
2023-04-10T22:26:24.602Z,15.70
2023-04-10T22:28:52.823Z,15.80
2023-04-10T22:31:21.311Z,15.80
2023-04-10T22:33:50.153Z,15.80
2023-04-10T22:36:19.335Z,15.80
2023-04-10T22:38:47.215Z,15.80
2023-04-10T22:41:15.137Z,15.90
2023-04-10T22:43:43.038Z,15.90
2023-04-10T22:46:11.011Z,15.80
2023-04-10T22:48:39.061Z,15.80
2023-04-10T22:51:11.504Z,15.80
2023-04-10T22:53:41.254Z,15.80
2023-04-10T22:56:10.527Z,15.80
2023-04-10T22:58:39.291Z,15.80
2023-04-10T23:01:08.229Z,15.80
2023-04-10T23:03:36.561Z,15.70
2023-04-10T23:06:04.863Z,15.70
2023-04-10T23:08:32.848Z,15.70
2023-04-10T23:11:02.140Z,15.60
2023-04-10T23:13:30.040Z,15.70
2023-04-10T23:15:57.933Z,15.70
2023-04-10T23:18:25.858Z,15.70
2023-04-10T23:20:53.735Z,15.70
2023-04-10T23:23:21.598Z,15.70
2023-04-10T23:25:58.293Z,15.70
2023-04-10T23:28:28.382Z,15.60
2023-04-10T23:30:56.339Z,15.60
2023-04-10T23:33:24.208Z,15.60
2023-04-10T23:35:52.118Z,15.60
2023-04-10T23:38:21.094Z,15.70
2023-04-10T23:40:49.134Z,15.70
2023-04-10T23:43:16.955Z,15.70
2023-04-10T23:45:46.459Z,15.70
2023-04-10T23:48:14.363Z,15.70
2023-04-10T23:50:42.266Z,15.70
2023-04-10T23:53:10.350Z,15.70
2023-04-10T23:55:40.205Z,15.70
2023-04-10T23:58:08.080Z,15.70
